Monday, December 18, 2017, 11:31 AM EST
Back to Local

KFWN, Sussex Airport

Location: Sussex, NJ, United States Lat: 41.2
Local Time: 11:31 AM EST (16:31 GMT) Lon: -74.633
Time Zone: US/Eastern Elev: 419 ft

Show me the last for .
Show Decoded

2017-12-18 10:53 METAR KFWN 181553Z AUTO 00000KT 10SM OVC007 00/M04 A3007 RMK AO2 SLP188
                 T00001044 =
2017-12-18 09:53 METAR KFWN 181453Z AUTO 00000KT 10SM OVC008 M01/M06 A3009 RMK AO2 SLP194 60000
                 T10111056 58009 =
2017-12-18 09:33 METAR KFWN 181433Z AUTO 00000KT 10SM OVC008 M01/M06 A3009 RMK AO2 T10111056 =
2017-12-18 08:53 METAR KFWN 181353Z AUTO 00000KT 10SM OVC010 M01/M06 A3010 RMK AO2 UPB24E33
                 SLP196 P0000 T10111061 =
2017-12-18 07:53 METAR KFWN 181253Z AUTO 08003KT 10SM OVC011 M02/M06 A3012 RMK AO2 SLP203
                 T10171061 =
2017-12-18 06:53 METAR KFWN 181153Z AUTO 00000KT 10SM OVC011 M02/M06 A3012 RMK AO2 SLP204 60000
                 T10221061 11017 21022 56006 =
2017-12-18 05:53 METAR KFWN 181053Z AUTO 00000KT 10SM OVC011 M02/M06 A3012 RMK AO2 SLP204
                 T10171061 =
2017-12-18 04:53 METAR KFWN 180953Z AUTO 00000KT 10SM OVC013 M02/M07 A3013 RMK AO2 UPB40E50
                 SLP208 P0000 T10171067 =
2017-12-18 03:53 METAR KFWN 180853Z AUTO 00000KT 10SM OVC014 M02/M06 A3014 RMK AO2 SLP210
                 T10221061 58011 =
2017-12-18 02:53 METAR KFWN 180753Z AUTO 05003KT 10SM OVC014 M02/M07 A3016 RMK AO2 SLP216
                 T10221067 =
2017-12-18 02:41 METAR KFWN 180741Z AUTO 05003KT 10SM OVC015 M02/M07 A3016 RMK AO2 T10171067 =
2017-12-18 01:53 METAR KFWN 180653Z AUTO 04003KT 10SM OVC014 M02/M07 A3016 RMK AO2 SLP216
                 T10221067 =
2017-12-18 01:41 METAR KFWN 180641Z AUTO 03004KT 10SM OVC014 M02/M07 A3016 RMK AO2 T10221072 =
2017-12-18 00:53 METAR KFWN 180553Z AUTO 07003KT 10SM OVC015 M02/M07 A3017 RMK AO2 SLP221
                 T10171067 11011 21017 56014 =
2017-12-17 23:53 METAR KFWN 180453Z AUTO 04005KT 10SM OVC015 M02/M07 A3018 RMK AO2 SLP224
                 T10171067 400111022 =
2017-12-17 23:07 METAR KFWN 180407Z AUTO 04004KT 10SM BKN018 M02/M07 A3020 RMK AO2 T10171067 =
2017-12-17 22:53 METAR KFWN 180353Z AUTO 03005KT 10SM FEW018 SCT110 M02/M07 A3020 RMK AO2 SLP230
                 T10171067 =
2017-12-17 21:53 METAR KFWN 180253Z AUTO 05004KT 10SM OVC060 M02/M06 A3021 RMK AO2 SLP236
                 T10171061 56010 =
2017-12-17 20:53 METAR KFWN 180153Z AUTO 06004KT 10SM FEW060 M01/M06 A3022 RMK AO2 SLP238
                 T10111056 =
2017-12-17 19:53 METAR KFWN 180053Z AUTO 00000KT 10SM FEW120 M02/M04 A3024 RMK AO2 SLP244
                 T10171044 =
2017-12-17 18:53 METAR KFWN 172353Z AUTO 00000KT 10SM FEW055 M02/M04 A3025 RMK AO2 SLP247
                 T10171044 10011 21022 51012 =
2017-12-17 17:53 METAR KFWN 172253Z AUTO 00000KT 10SM FEW055 M02/M06 A3024 RMK AO2 SLP244
                 T10171056 =
2017-12-17 16:53 METAR KFWN 172153Z AUTO 00000KT 10SM CLR M01/M06 A3022 RMK AO2 SLP238 T10111056
                 =
2017-12-17 15:53 METAR KFWN 172053Z AUTO 00000KT 10SM CLR M01/M06 A3021 RMK AO2 SLP234 T10061056
                 56008 =
2017-12-17 14:53 METAR KFWN 171953Z AUTO 00000KT 10SM CLR 01/M05 A3021 RMK AO2 SLP235 T00061050 =
2017-12-17 13:53 METAR KFWN 171853Z AUTO 00000KT 10SM CLR 01/M05 A3021 RMK AO2 SLP235 T00061050 =
2017-12-17 13:32 METAR KFWN 171832Z AUTO 00000KT 10SM SCT024 01/M06 A3022 RMK AO2 T00061061 =
2017-12-17 13:16 METAR KFWN 171816Z AUTO 00000KT 10SM BKN024 01/M07 A3022 RMK AO2 T00061067 =
2017-12-17 12:53 METAR KFWN 171753Z AUTO 00000KT 10SM FEW025 00/M06 A3023 RMK AO2 SLP242
                 T00001061 10000 21022 58017 =
2017-12-17 11:53 METAR KFWN 171653Z AUTO 16003KT 10SM CLR M01/M07 A3026 RMK AO2 SLP252 T10061067
                 =

Support USWX by starting your Amazon purchase here.